createdAt,value
2019-04-23T00:00:56.753Z,18.83
2019-04-23T00:03:19.426Z,18.77
2019-04-23T00:06:14.675Z,18.76
2019-04-23T00:08:44.818Z,18.78
2019-04-23T00:10:58.486Z,18.76
2019-04-23T00:13:24.141Z,18.72
2019-04-23T00:16:08.920Z,18.69
2019-04-23T00:20:59.341Z,18.68
2019-04-23T00:23:42.448Z,18.66
2019-04-23T00:28:35.416Z,18.63
2019-04-23T00:31:06.827Z,18.62
2019-04-23T00:33:29.574Z,18.62
2019-04-23T00:36:02.643Z,18.56
2019-04-23T00:41:05.612Z,18.54
2019-04-23T00:45:59.717Z,18.53
2019-04-23T00:48:35.279Z,18.51
2019-04-23T00:50:56.192Z,18.48
2019-04-23T00:53:32.876Z,18.45
2019-04-23T00:56:24.964Z,18.45
2019-04-23T00:58:41.189Z,18.39
2019-04-23T01:01:07.681Z,18.39
2019-04-23T01:03:33.904Z,18.39
2019-04-23T01:06:09.617Z,18.37
2019-04-23T01:08:38.824Z,18.36
2019-04-23T01:18:51.443Z,18.25
2019-04-23T01:21:03.463Z,18.27
2019-04-23T01:23:47.162Z,18.22
2019-04-23T01:26:29.596Z,18.20
2019-04-23T01:29:08.434Z,18.20
2019-04-23T01:31:34.853Z,18.19
2019-04-23T01:34:15.077Z,18.20
2019-04-23T01:36:54.626Z,18.18
2019-04-23T01:41:45.378Z,18.17
2019-04-23T01:44:07.410Z,18.14
2019-04-23T01:46:43.870Z,18.07
2019-04-23T01:49:31.198Z,18.06
2019-04-23T01:51:46.652Z,18.05
2019-04-23T01:54:10.908Z,18.03
2019-04-23T01:56:35.188Z,18.00
2019-04-23T01:59:16.155Z,18.00
2019-04-23T02:01:47.459Z,17.90
2019-04-23T02:04:18.888Z,17.86
2019-04-23T02:06:39.200Z,17.84
2019-04-23T02:09:13.823Z,17.83
2019-04-23T02:11:40.340Z,17.75
2019-04-23T02:16:57.918Z,17.71
2019-04-23T02:19:22.153Z,17.70
2019-04-23T02:21:52.768Z,17.68
2019-04-23T02:24:20.970Z,17.66
2019-04-23T02:27:07.384Z,17.60
2019-04-23T02:29:28.412Z,17.54
2019-04-23T02:34:40.963Z,17.49
2019-04-23T02:36:55.003Z,17.49
2019-04-23T02:39:29.123Z,17.44
2019-04-23T02:42:04.800Z,17.39
2019-04-23T02:47:10.357Z,17.32
2019-04-23T02:49:38.177Z,17.28
2019-04-23T03:02:15.595Z,17.18
2019-04-23T03:07:02.899Z,17.16
2019-04-23T03:09:43.309Z,17.12
2019-04-23T03:12:07.873Z,17.10
2019-04-23T03:14:33.114Z,17.11
2019-04-23T03:19:38.374Z,17.11
2019-04-23T03:22:09.574Z,17.05
2019-04-23T03:27:22.838Z,16.97
2019-04-23T03:40:01.839Z,16.86
2019-04-23T03:42:29.754Z,16.82
2019-04-23T03:45:17.071Z,16.79
2019-04-23T03:50:08.749Z,16.81
2019-04-23T03:55:05.735Z,16.78
2019-04-23T04:00:03.463Z,16.67
2019-04-23T04:02:39.788Z,16.71
2019-04-23T04:05:06.061Z,16.65
2019-04-23T04:07:44.902Z,16.70
2019-04-23T04:09:51.717Z,16.66
2019-04-23T04:12:35.301Z,16.64
2019-04-23T04:22:39.210Z,16.63
2019-04-23T04:25:01.626Z,16.66
2019-04-23T04:27:43.447Z,16.68
2019-04-23T04:30:00.881Z,16.62
2019-04-23T04:32:33.453Z,16.62
2019-04-23T04:35:20.942Z,16.62
2019-04-23T04:42:58.572Z,16.68
2019-04-23T04:47:35.488Z,16.62
2019-04-23T04:50:01.415Z,16.59
2019-04-23T04:52:44.292Z,16.55
2019-04-23T04:55:03.233Z,16.50
2019-04-23T04:57:37.233Z,16.48
2019-04-23T05:00:21.575Z,16.44
2019-04-23T05:05:29.003Z,16.47
2019-04-23T05:07:38.178Z,16.46
2019-04-23T05:12:27.642Z,16.41
2019-04-23T05:17:55.144Z,16.40
2019-04-23T05:20:13.185Z,16.36
2019-04-23T05:22:51.041Z,16.33
2019-04-23T05:25:05.484Z,16.31
2019-04-23T05:27:47.204Z,16.28
2019-04-23T05:30:15.631Z,16.20
2019-04-23T05:32:45.163Z,16.24
2019-04-23T05:35:09.863Z,16.25
2019-04-23T05:37:50.585Z,16.24
2019-04-23T05:40:25.374Z,16.23
2019-04-23T05:42:53.223Z,16.24
2019-04-23T05:45:08.362Z,16.18
2019-04-23T05:47:47.053Z,16.21
2019-04-23T05:50:21.633Z,16.23
2019-04-23T05:52:45.924Z,16.23
2019-04-23T05:55:16.995Z,16.21
2019-04-23T05:57:42.684Z,16.24
2019-04-23T06:00:15.846Z,16.21
2019-04-23T06:02:51.710Z,16.18
2019-04-23T06:05:19.193Z,16.22
2019-04-23T06:10:23.415Z,16.26
2019-04-23T06:12:45.333Z,16.27
2019-04-23T06:15:23.821Z,16.27
2019-04-23T06:17:47.454Z,16.31
2019-04-23T06:20:18.155Z,16.28
2019-04-23T06:22:49.554Z,16.26
2019-04-23T06:25:35.757Z,16.32
2019-04-23T06:27:45.955Z,16.28
2019-04-23T06:30:17.977Z,16.30
2019-04-23T06:32:42.902Z,16.32
2019-04-23T06:35:16.031Z,16.33
2019-04-23T06:38:26.176Z,16.38
2019-04-23T06:40:21.594Z,16.39
2019-04-23T06:42:56.325Z,16.42
2019-04-23T06:45:14.803Z,16.41
2019-04-23T06:47:55.457Z,16.42
2019-04-23T06:50:19.534Z,16.42
2019-04-23T06:52:50.157Z,16.44
2019-04-23T06:57:58.813Z,16.48
2019-04-23T07:00:27.493Z,16.47
2019-04-23T07:02:54.227Z,16.50
2019-04-23T07:05:37.690Z,16.52
2019-04-23T07:07:59.709Z,16.54
2019-04-23T07:10:30.145Z,16.50
2019-04-23T07:12:57.723Z,16.57
2019-04-23T07:17:55.431Z,16.58
2019-04-23T07:20:31.688Z,16.56
2019-04-23T07:23:14.166Z,16.59
2019-04-23T07:25:25.247Z,16.62
2019-04-23T07:27:59.427Z,16.65
2019-04-23T07:30:31.608Z,16.65
2019-04-23T07:33:00.087Z,16.64
2019-04-23T07:35:30.479Z,16.70
2019-04-23T07:38:08.832Z,16.67
2019-04-23T07:40:31.243Z,16.73
2019-04-23T07:43:15.545Z,16.79
2019-04-23T07:45:53.346Z,16.78
2019-04-23T07:48:22.280Z,16.83
2019-04-23T07:50:55.029Z,16.84
2019-04-23T08:00:57.072Z,16.88
2019-04-23T08:03:33.060Z,16.92
2019-04-23T08:05:55.861Z,16.97
2019-04-23T08:08:43.857Z,16.96
2019-04-23T08:16:25.822Z,17.01
2019-04-23T08:18:45.169Z,16.96
2019-04-23T08:23:49.073Z,17.09
2019-04-23T08:26:31.545Z,17.07
2019-04-23T08:28:59.573Z,17.06
2019-04-23T08:31:28.351Z,17.12
2019-04-23T08:33:57.492Z,16.97
2019-04-23T08:36:21.728Z,17.09
2019-04-23T08:38:51.071Z,17.17
2019-04-23T08:41:31.709Z,17.24
2019-04-23T08:46:37.499Z,17.24
2019-04-23T08:49:05.031Z,17.27
2019-04-23T08:51:44.221Z,17.15
2019-04-23T08:54:09.138Z,17.19
2019-04-23T08:56:32.216Z,17.18
2019-04-23T08:59:01.770Z,17.23
2019-04-23T09:01:33.007Z,17.30
2019-04-23T09:04:01.966Z,17.36
2019-04-23T09:06:29.857Z,17.40
2019-04-23T09:08:56.530Z,17.43
2019-04-23T09:11:41.666Z,17.47
2019-04-23T09:14:04.693Z,17.47
2019-04-23T09:19:12.691Z,17.54
2019-04-23T09:21:41.863Z,17.56
2019-04-23T09:24:00.424Z,17.59
2019-04-23T09:26:35.316Z,17.56
2019-04-23T09:29:21.583Z,17.58
2019-04-23T09:34:42.950Z,17.60
2019-04-23T09:37:19.447Z,17.61
2019-04-23T09:39:59.553Z,17.58
2019-04-23T09:42:38.819Z,17.63
2019-04-23T09:45:33.870Z,17.66
2019-04-23T09:47:58.492Z,17.68
2019-04-23T09:53:06.340Z,17.73
2019-04-23T09:55:28.235Z,17.71
2019-04-23T09:57:55.469Z,17.72
2019-04-23T10:00:31.424Z,17.69
2019-04-23T10:02:45.712Z,17.76
2019-04-23T10:05:11.174Z,17.80
2019-04-23T10:07:40.593Z,17.80
2019-04-23T10:09:59.627Z,17.82
2019-04-23T10:12:28.258Z,17.84
2019-04-23T10:15:07.246Z,17.87
2019-04-23T10:17:28.480Z,17.87
2019-04-23T10:19:58.277Z,17.89
2019-04-23T10:22:27.275Z,17.90
2019-04-23T10:24:57.175Z,17.93
2019-04-23T10:27:27.233Z,17.98
2019-04-23T10:29:56.230Z,17.99
2019-04-23T10:32:25.463Z,18.02
2019-04-23T10:35:06.826Z,18.08
2019-04-23T10:37:32.893Z,18.11
2019-04-23T10:39:59.215Z,18.11
2019-04-23T10:42:25.414Z,18.14
2019-04-23T10:45:27.414Z,18.20
2019-04-23T10:48:32.770Z,18.25
2019-04-23T10:50:59.427Z,18.28
2019-04-23T10:58:35.306Z,18.38
2019-04-23T11:01:05.811Z,18.46
2019-04-23T11:03:52.154Z,18.46
2019-04-23T11:06:17.601Z,18.47
2019-04-23T11:08:36.811Z,18.51
2019-04-23T11:11:16.604Z,18.56
2019-04-23T11:13:38.379Z,18.59
2019-04-23T11:16:47.283Z,18.59
2019-04-23T11:18:53.963Z,18.68
2019-04-23T11:21:17.969Z,18.84
2019-04-23T11:23:43.062Z,18.91
2019-04-23T11:26:20.030Z,18.87
2019-04-23T11:28:38.240Z,18.98
2019-04-23T11:31:26.117Z,19.06
2019-04-23T11:33:46.370Z,19.15
2019-04-23T11:38:56.163Z,19.19
2019-04-23T11:41:22.599Z,19.25
2019-04-23T11:43:39.536Z,19.18
2019-04-23T11:49:09.574Z,19.16
2019-04-23T11:56:44.781Z,19.18
2019-04-23T11:58:45.749Z,19.17
2019-04-23T12:04:05.173Z,19.24
2019-04-23T12:06:50.986Z,19.20
2019-04-23T12:09:14.526Z,19.24
2019-04-23T12:14:21.890Z,19.33
2019-04-23T12:17:03.950Z,19.41
2019-04-23T12:19:44.276Z,19.39
2019-04-23T12:21:44.699Z,19.38
2019-04-23T12:24:37.916Z,19.44
2019-04-23T12:29:23.351Z,19.39
2019-04-23T12:32:15.093Z,19.48
2019-04-23T12:34:39.560Z,19.44
2019-04-23T12:37:04.167Z,19.42
2019-04-23T12:39:41.532Z,19.46
2019-04-23T12:42:37.348Z,19.48
2019-04-23T12:44:45.856Z,19.59
2019-04-23T12:47:27.531Z,19.57
2019-04-23T12:54:55.987Z,19.58
2019-04-23T12:59:44.355Z,19.68
2019-04-23T13:07:19.572Z,19.61
2019-04-23T13:12:20.605Z,19.66
2019-04-23T13:14:49.537Z,19.66
2019-04-23T13:17:33.062Z,19.67
2019-04-23T13:20:04.136Z,19.63
2019-04-23T13:24:48.484Z,19.66
2019-04-23T13:29:56.585Z,19.72
2019-04-23T13:32:20.507Z,19.82
2019-04-23T13:35:02.916Z,19.88
2019-04-23T13:37:31.511Z,19.86
2019-04-23T13:39:51.526Z,19.80
2019-04-23T13:42:33.675Z,19.81
2019-04-23T13:44:59.893Z,19.75
2019-04-23T13:47:40.917Z,19.76
2019-04-23T13:49:57.303Z,19.78
2019-04-23T13:52:48.013Z,19.71
2019-04-23T14:00:09.511Z,19.68
2019-04-23T14:02:31.131Z,19.67
2019-04-23T14:04:58.549Z,19.75
2019-04-23T14:07:34.303Z,19.74
2019-04-23T14:12:31.917Z,19.70
2019-04-23T14:15:06.403Z,19.70
2019-04-23T14:17:46.665Z,19.70
2019-04-23T14:20:05.468Z,19.68
2019-04-23T14:22:51.143Z,19.67
2019-04-23T14:27:37.134Z,19.76
2019-04-23T14:35:10.855Z,19.77
2019-04-23T14:37:29.408Z,19.81
2019-04-23T14:40:06.116Z,19.78
2019-04-23T14:42:47.259Z,19.78
2019-04-23T14:45:19.153Z,19.76
2019-04-23T14:47:39.054Z,19.77
2019-04-23T14:50:27.887Z,19.79
2019-04-23T14:52:52.478Z,19.77
2019-04-23T15:02:51.889Z,19.84
2019-04-23T15:07:53.996Z,19.77
2019-04-23T15:12:54.014Z,19.75
2019-04-23T15:15:19.337Z,19.72
2019-04-23T15:17:50.640Z,19.74
2019-04-23T15:20:30.630Z,19.81
2019-04-23T15:23:14.396Z,19.84
2019-04-23T15:25:40.185Z,19.86
2019-04-23T15:28:07.402Z,19.80
2019-04-23T15:30:21.737Z,19.83
2019-04-23T15:36:02.298Z,19.77
2019-04-23T15:40:26.991Z,19.72
2019-04-23T15:43:02.706Z,19.75
2019-04-23T15:45:30.708Z,19.75
2019-04-23T15:48:05.005Z,19.71
2019-04-23T15:53:01.335Z,19.69
2019-04-23T15:55:28.162Z,19.68
2019-04-23T15:58:09.311Z,19.68
2019-04-23T16:00:30.898Z,19.69
2019-04-23T16:02:32.912Z,19.68
2019-04-23T16:05:01.354Z,19.67
2019-04-23T16:07:51.562Z,19.65
2019-04-23T16:10:28.403Z,19.63
2019-04-23T16:13:06.059Z,19.63
2019-04-23T16:15:25.570Z,19.62
2019-04-23T16:18:13.889Z,19.61
2019-04-23T16:20:50.281Z,19.60
2019-04-23T16:23:07.743Z,19.60
2019-04-23T16:25:38.423Z,19.60
2019-04-23T16:28:12.910Z,19.60
2019-04-23T16:30:39.826Z,19.60
2019-04-23T16:33:11.076Z,19.59
2019-04-23T16:35:51.574Z,19.59
2019-04-23T16:40:47.632Z,19.60
2019-04-23T16:45:56.822Z,19.59
2019-04-23T16:48:40.701Z,19.59
2019-04-23T16:51:11.865Z,19.58
2019-04-23T16:53:21.451Z,19.59
2019-04-23T16:55:55.081Z,19.59
2019-04-23T16:58:25.324Z,19.57
2019-04-23T17:01:02.587Z,19.56
2019-04-23T17:03:26.181Z,19.56
2019-04-23T17:05:57.869Z,19.56
2019-04-23T17:08:45.329Z,19.56
2019-04-23T17:13:24.185Z,19.53
2019-04-23T17:16:04.436Z,19.54
2019-04-23T17:18:24.807Z,19.56
2019-04-23T17:23:31.704Z,19.53
2019-04-23T17:25:58.167Z,19.53
2019-04-23T17:28:35.859Z,19.52
2019-04-23T17:31:03.465Z,19.51
2019-04-23T17:33:43.764Z,19.53
2019-04-23T17:36:15.143Z,19.48
2019-04-23T17:38:43.516Z,19.47
2019-04-23T17:41:15.612Z,19.45
2019-04-23T17:43:39.622Z,19.44
2019-04-23T17:46:14.822Z,19.42
2019-04-23T17:48:34.492Z,19.42
2019-04-23T17:51:16.571Z,19.41
2019-04-23T17:54:04.729Z,19.41
2019-04-23T17:58:43.741Z,19.39
2019-04-23T18:06:28.281Z,19.36
2019-04-23T18:09:05.942Z,19.36
2019-04-23T18:11:29.894Z,19.34
2019-04-23T18:13:50.528Z,19.34
2019-04-23T18:16:32.076Z,19.33
2019-04-23T18:19:10.323Z,19.30
2019-04-23T18:21:36.043Z,19.30
2019-04-23T18:24:13.333Z,19.29
2019-04-23T18:26:40.970Z,19.29
2019-04-23T18:29:19.225Z,19.25
2019-04-23T18:31:38.631Z,19.24
2019-04-23T18:34:12.611Z,19.24
2019-04-23T18:36:43.064Z,19.23
2019-04-23T18:39:12.090Z,19.20
2019-04-23T18:41:46.504Z,19.17
2019-04-23T18:44:24.964Z,19.18
2019-04-23T18:46:43.802Z,19.17
2019-04-23T18:49:28.207Z,19.16
2019-04-23T18:51:52.124Z,19.14
2019-04-23T18:54:19.943Z,19.13
2019-04-23T18:56:59.668Z,19.12
2019-04-23T18:59:30.519Z,19.08
2019-04-23T19:01:48.106Z,19.10
2019-04-23T19:06:40.000Z,19.07
